sensor_id;sensor_type;location;lat;lon;timestamp;P1;durP1;ratioP1;P2;durP2;ratioP2
38455;SDS011;24237;50.106;20.014;2023-04-25T00:01:34;43.20;;;28.50;;
38455;SDS011;24237;50.106;20.014;2023-04-25T00:04:01;45.97;;;29.63;;
38455;SDS011;24237;50.106;20.014;2023-04-25T00:06:27;41.92;;;29.52;;
38455;SDS011;24237;50.106;20.014;2023-04-25T00:08:59;46.85;;;29.75;;
38455;SDS011;24237;50.106;20.014;2023-04-25T00:11:24;44.30;;;29.25;;
38455;SDS011;24237;50.106;20.014;2023-04-25T00:13:50;44.17;;;30.15;;
38455;SDS011;24237;50.106;20.014;2023-04-25T00:16:16;42.30;;;27.63;;
38455;SDS011;24237;50.106;20.014;2023-04-25T00:18:42;31.70;;;21.92;;
38455;SDS011;24237;50.106;20.014;2023-04-25T00:21:08;24.70;;;17.38;;
38455;SDS011;24237;50.106;20.014;2023-04-25T00:23:33;17.33;;;10.75;;
38455;SDS011;24237;50.106;20.014;2023-04-25T00:26:01;9.38;;;6.80;;
38455;SDS011;24237;50.106;20.014;2023-04-25T00:28:27;8.10;;;5.70;;
38455;SDS011;24237;50.106;20.014;2023-04-25T00:30:53;8.63;;;4.97;;
38455;SDS011;24237;50.106;20.014;2023-04-25T00:33:18;7.68;;;5.05;;
38455;SDS011;24237;50.106;20.014;2023-04-25T00:35:44;7.30;;;4.53;;
38455;SDS011;24237;50.106;20.014;2023-04-25T00:38:10;5.75;;;3.58;;
38455;SDS011;24237;50.106;20.014;2023-04-25T00:40:36;4.47;;;3.15;;
38455;SDS011;24237;50.106;20.014;2023-04-25T00:43:02;3.95;;;2.80;;
38455;SDS011;24237;50.106;20.014;2023-04-25T00:45:28;4.13;;;2.83;;
38455;SDS011;24237;50.106;20.014;2023-04-25T00:47:54;4.18;;;2.40;;
38455;SDS011;24237;50.106;20.014;2023-04-25T00:50:21;4.03;;;2.80;;
38455;SDS011;24237;50.106;20.014;2023-04-25T00:52:47;3.63;;;2.38;;
38455;SDS011;24237;50.106;20.014;2023-04-25T00:55:13;3.03;;;2.13;;
38455;SDS011;24237;50.106;20.014;2023-04-25T00:57:40;4.50;;;3.17;;
38455;SDS011;24237;50.106;20.014;2023-04-25T01:00:07;2.47;;;1.67;;
38455;SDS011;24237;50.106;20.014;2023-04-25T01:02:34;3.47;;;2.08;;
38455;SDS011;24237;50.106;20.014;2023-04-25T01:05:01;3.50;;;1.63;;
38455;SDS011;24237;50.106;20.014;2023-04-25T01:07:27;4.32;;;2.00;;
38455;SDS011;24237;50.106;20.014;2023-04-25T01:09:52;3.60;;;2.00;;
38455;SDS011;24237;50.106;20.014;2023-04-25T01:12:18;2.30;;;1.55;;
38455;SDS011;24237;50.106;20.014;2023-04-25T01:14:44;6.18;;;1.65;;
38455;SDS011;24237;50.106;20.014;2023-04-25T01:17:10;4.22;;;2.30;;
38455;SDS011;24237;50.106;20.014;2023-04-25T01:19:36;3.50;;;2.30;;
38455;SDS011;24237;50.106;20.014;2023-04-25T01:22:02;7.60;;;2.63;;
38455;SDS011;24237;50.106;20.014;2023-04-25T01:24:28;3.63;;;1.95;;
38455;SDS011;24237;50.106;20.014;2023-04-25T01:26:55;3.20;;;2.45;;
38455;SDS011;24237;50.106;20.014;2023-04-25T01:29:22;2.83;;;2.13;;
38455;SDS011;24237;50.106;20.014;2023-04-25T01:31:49;8.07;;;2.65;;
38455;SDS011;24237;50.106;20.014;2023-04-25T01:34:17;3.58;;;2.28;;
38455;SDS011;24237;50.106;20.014;2023-04-25T01:36:43;5.32;;;2.47;;
38455;SDS011;24237;50.106;20.014;2023-04-25T01:39:09;3.83;;;2.20;;
38455;SDS011;24237;50.106;20.014;2023-04-25T01:41:34;4.20;;;2.88;;
38455;SDS011;24237;50.106;20.014;2023-04-25T01:44:01;4.57;;;2.85;;
38455;SDS011;24237;50.106;20.014;2023-04-25T01:46:27;5.00;;;2.67;;
38455;SDS011;24237;50.106;20.014;2023-04-25T01:48:53;4.82;;;2.67;;
38455;SDS011;24237;50.106;20.014;2023-04-25T01:51:19;5.97;;;2.97;;
38455;SDS011;24237;50.106;20.014;2023-04-25T01:53:45;5.75;;;3.20;;
38455;SDS011;24237;50.106;20.014;2023-04-25T01:56:11;4.20;;;2.70;;
38455;SDS011;24237;50.106;20.014;2023-04-25T01:58:37;5.53;;;2.78;;
38455;SDS011;24237;50.106;20.014;2023-04-25T02:01:02;5.18;;;3.55;;
38455;SDS011;24237;50.106;20.014;2023-04-25T02:03:29;3.90;;;3.08;;
38455;SDS011;24237;50.106;20.014;2023-04-25T02:05:55;4.35;;;3.45;;
38455;SDS011;24237;50.106;20.014;2023-04-25T02:08:21;4.80;;;3.25;;
38455;SDS011;24237;50.106;20.014;2023-04-25T02:10:47;10.63;;;3.88;;
38455;SDS011;24237;50.106;20.014;2023-04-25T02:13:12;6.15;;;3.00;;
38455;SDS011;24237;50.106;20.014;2023-04-25T02:15:38;5.95;;;3.13;;
38455;SDS011;24237;50.106;20.014;2023-04-25T02:18:04;6.07;;;3.42;;
38455;SDS011;24237;50.106;20.014;2023-04-25T02:20:31;7.38;;;3.47;;
38455;SDS011;24237;50.106;20.014;2023-04-25T02:22:57;5.38;;;3.75;;
38455;SDS011;24237;50.106;20.014;2023-04-25T02:25:23;7.43;;;3.88;;
38455;SDS011;24237;50.106;20.014;2023-04-25T02:27:49;6.82;;;4.03;;
38455;SDS011;24237;50.106;20.014;2023-04-25T02:30:16;5.80;;;3.50;;
38455;SDS011;24237;50.106;20.014;2023-04-25T02:32:42;5.35;;;4.10;;
38455;SDS011;24237;50.106;20.014;2023-04-25T02:35:08;6.28;;;3.60;;
38455;SDS011;24237;50.106;20.014;2023-04-25T02:37:34;7.22;;;3.90;;
38455;SDS011;24237;50.106;20.014;2023-04-25T02:40:01;7.50;;;3.50;;
38455;SDS011;24237;50.106;20.014;2023-04-25T02:42:28;7.25;;;3.92;;
38455;SDS011;24237;50.106;20.014;2023-04-25T02:44:54;6.72;;;4.07;;
38455;SDS011;24237;50.106;20.014;2023-04-25T02:47:20;7.00;;;4.07;;
38455;SDS011;24237;50.106;20.014;2023-04-25T02:49:46;9.73;;;4.72;;
38455;SDS011;24237;50.106;20.014;2023-04-25T02:52:12;6.93;;;4.75;;
38455;SDS011;24237;50.106;20.014;2023-04-25T02:54:38;7.40;;;4.65;;
38455;SDS011;24237;50.106;20.014;2023-04-25T02:57:04;8.35;;;4.35;;
38455;SDS011;24237;50.106;20.014;2023-04-25T02:59:30;5.82;;;4.13;;
38455;SDS011;24237;50.106;20.014;2023-04-25T03:01:56;7.72;;;4.65;;
38455;SDS011;24237;50.106;20.014;2023-04-25T03:04:21;7.25;;;4.53;;
38455;SDS011;24237;50.106;20.014;2023-04-25T03:06:48;6.47;;;4.50;;
38455;SDS011;24237;50.106;20.014;2023-04-25T03:09:18;7.60;;;4.85;;
38455;SDS011;24237;50.106;20.014;2023-04-25T03:11:43;8.75;;;5.10;;
38455;SDS011;24237;50.106;20.014;2023-04-25T03:14:09;9.02;;;4.93;;
38455;SDS011;24237;50.106;20.014;2023-04-25T03:16:35;9.15;;;5.53;;
38455;SDS011;24237;50.106;20.014;2023-04-25T03:19:02;7.40;;;5.22;;
38455;SDS011;24237;50.106;20.014;2023-04-25T03:21:28;7.60;;;5.20;;
38455;SDS011;24237;50.106;20.014;2023-04-25T03:23:56;8.50;;;5.30;;
38455;SDS011;24237;50.106;20.014;2023-04-25T03:26:21;7.60;;;4.82;;
38455;SDS011;24237;50.106;20.014;2023-04-25T03:28:47;7.15;;;4.47;;
38455;SDS011;24237;50.106;20.014;2023-04-25T03:31:12;6.35;;;4.63;;
38455;SDS011;24237;50.106;20.014;2023-04-25T03:33:38;8.13;;;5.38;;
38455;SDS011;24237;50.106;20.014;2023-04-25T03:36:04;7.22;;;4.65;;
38455;SDS011;24237;50.106;20.014;2023-04-25T03:38:30;6.28;;;4.35;;
38455;SDS011;24237;50.106;20.014;2023-04-25T03:40:56;7.18;;;5.18;;
38455;SDS011;24237;50.106;20.014;2023-04-25T03:43:21;6.18;;;4.80;;
38455;SDS011;24237;50.106;20.014;2023-04-25T03:45:47;5.93;;;4.13;;
38455;SDS011;24237;50.106;20.014;2023-04-25T03:48:13;5.88;;;4.55;;
38455;SDS011;24237;50.106;20.014;2023-04-25T03:50:38;5.57;;;4.40;;
38455;SDS011;24237;50.106;20.014;2023-04-25T03:53:04;7.15;;;4.53;;
38455;SDS011;24237;50.106;20.014;2023-04-25T03:55:30;10.25;;;5.32;;
38455;SDS011;24237;50.106;20.014;2023-04-25T03:57:56;8.77;;;5.95;;
38455;SDS011;24237;50.106;20.014;2023-04-25T04:00:23;8.65;;;5.93;;
38455;SDS011;24237;50.106;20.014;2023-04-25T04:02:49;10.02;;;5.65;;
38455;SDS011;24237;50.106;20.014;2023-04-25T04:05:14;10.07;;;6.53;;
38455;SDS011;24237;50.106;20.014;2023-04-25T04:07:40;10.98;;;6.72;;
38455;SDS011;24237;50.106;20.014;2023-04-25T04:10:07;10.02;;;6.78;;
38455;SDS011;24237;50.106;20.014;2023-04-25T04:12:37;9.63;;;7.20;;
38455;SDS011;24237;50.106;20.014;2023-04-25T04:15:03;10.32;;;7.13;;
38455;SDS011;24237;50.106;20.014;2023-04-25T04:17:30;11.55;;;6.70;;
38455;SDS011;24237;50.106;20.014;2023-04-25T04:19:56;9.30;;;7.45;;
38455;SDS011;24237;50.106;20.014;2023-04-25T04:22:22;11.93;;;7.90;;
38455;SDS011;24237;50.106;20.014;2023-04-25T04:24:48;12.00;;;8.02;;
38455;SDS011;24237;50.106;20.014;2023-04-25T04:27:15;12.55;;;8.05;;
38455;SDS011;24237;50.106;20.014;2023-04-25T04:29:42;12.15;;;9.02;;
38455;SDS011;24237;50.106;20.014;2023-04-25T04:32:08;15.43;;;9.27;;
38455;SDS011;24237;50.106;20.014;2023-04-25T04:34:34;14.30;;;8.98;;
38455;SDS011;24237;50.106;20.014;2023-04-25T04:37:00;16.48;;;10.32;;
38455;SDS011;24237;50.106;20.014;2023-04-25T04:39:26;14.90;;;9.82;;
38455;SDS011;24237;50.106;20.014;2023-04-25T04:41:51;19.08;;;10.20;;
38455;SDS011;24237;50.106;20.014;2023-04-25T04:44:17;15.80;;;10.57;;
38455;SDS011;24237;50.106;20.014;2023-04-25T04:46:43;15.95;;;10.35;;
38455;SDS011;24237;50.106;20.014;2023-04-25T04:49:09;15.80;;;9.93;;
38455;SDS011;24237;50.106;20.014;2023-04-25T04:51:35;13.38;;;8.95;;
38455;SDS011;24237;50.106;20.014;2023-04-25T04:54:01;13.68;;;8.85;;
38455;SDS011;24237;50.106;20.014;2023-04-25T04:56:28;13.77;;;9.30;;
38455;SDS011;24237;50.106;20.014;2023-04-25T04:58:56;12.13;;;8.43;;
38455;SDS011;24237;50.106;20.014;2023-04-25T05:01:22;14.48;;;9.30;;
38455;SDS011;24237;50.106;20.014;2023-04-25T05:03:48;12.43;;;9.50;;
38455;SDS011;24237;50.106;20.014;2023-04-25T05:06:15;13.93;;;9.20;;
38455;SDS011;24237;50.106;20.014;2023-04-25T05:08:42;12.73;;;9.15;;
38455;SDS011;24237;50.106;20.014;2023-04-25T05:11:07;13.05;;;8.93;;
38455;SDS011;24237;50.106;20.014;2023-04-25T05:13:34;16.33;;;10.25;;
38455;SDS011;24237;50.106;20.014;2023-04-25T05:15:59;18.90;;;10.18;;
38455;SDS011;24237;50.106;20.014;2023-04-25T05:18:25;16.35;;;11.57;;
38455;SDS011;24237;50.106;20.014;2023-04-25T05:20:51;13.23;;;10.38;;
38455;SDS011;24237;50.106;20.014;2023-04-25T05:23:16;18.30;;;10.75;;
38455;SDS011;24237;50.106;20.014;2023-04-25T05:25:42;13.73;;;8.98;;
38455;SDS011;24237;50.106;20.014;2023-04-25T05:28:07;13.00;;;8.38;;
38455;SDS011;24237;50.106;20.014;2023-04-25T05:30:33;14.75;;;9.10;;
38455;SDS011;24237;50.106;20.014;2023-04-25T05:32:59;10.77;;;7.03;;
38455;SDS011;24237;50.106;20.014;2023-04-25T05:35:25;11.32;;;7.50;;
38455;SDS011;24237;50.106;20.014;2023-04-25T05:37:51;12.73;;;6.70;;
38455;SDS011;24237;50.106;20.014;2023-04-25T05:40:16;9.77;;;5.72;;
38455;SDS011;24237;50.106;20.014;2023-04-25T05:42:42;10.75;;;5.85;;
38455;SDS011;24237;50.106;20.014;2023-04-25T05:45:08;7.88;;;5.32;;
38455;SDS011;24237;50.106;20.014;2023-04-25T05:47:33;7.50;;;5.10;;
38455;SDS011;24237;50.106;20.014;2023-04-25T05:49:59;8.18;;;4.65;;
38455;SDS011;24237;50.106;20.014;2023-04-25T05:52:25;10.38;;;4.85;;
38455;SDS011;24237;50.106;20.014;2023-04-25T05:54:50;6.47;;;4.63;;
38455;SDS011;24237;50.106;20.014;2023-04-25T05:57:20;8.52;;;4.82;;
38455;SDS011;24237;50.106;20.014;2023-04-25T05:59:49;9.70;;;4.18;;
38455;SDS011;24237;50.106;20.014;2023-04-25T06:02:15;8.77;;;4.95;;
38455;SDS011;24237;50.106;20.014;2023-04-25T06:04:41;4.45;;;3.20;;
38455;SDS011;24237;50.106;20.014;2023-04-25T06:07:06;7.25;;;4.05;;
38455;SDS011;24237;50.106;20.014;2023-04-25T06:09:32;7.05;;;4.25;;
38455;SDS011;24237;50.106;20.014;2023-04-25T06:11:59;6.07;;;3.50;;
38455;SDS011;24237;50.106;20.014;2023-04-25T06:14:24;6.60;;;3.47;;
38455;SDS011;24237;50.106;20.014;2023-04-25T06:16:50;9.27;;;3.90;;
38455;SDS011;24237;50.106;20.014;2023-04-25T06:19:16;8.48;;;4.15;;
38455;SDS011;24237;50.106;20.014;2023-04-25T06:21:42;5.57;;;3.90;;
38455;SDS011;24237;50.106;20.014;2023-04-25T06:26:34;8.10;;;4.05;;
38455;SDS011;24237;50.106;20.014;2023-04-25T06:29:00;7.45;;;3.70;;
38455;SDS011;24237;50.106;20.014;2023-04-25T06:31:26;7.18;;;4.43;;
38455;SDS011;24237;50.106;20.014;2023-04-25T06:33:51;5.43;;;3.33;;
38455;SDS011;24237;50.106;20.014;2023-04-25T06:36:19;6.15;;;3.38;;
38455;SDS011;24237;50.106;20.014;2023-04-25T06:38:49;6.80;;;2.65;;
38455;SDS011;24237;50.106;20.014;2023-04-25T06:41:16;10.63;;;3.97;;
38455;SDS011;24237;50.106;20.014;2023-04-25T06:43:41;5.18;;;2.97;;
38455;SDS011;24237;50.106;20.014;2023-04-25T06:46:07;4.80;;;2.85;;
38455;SDS011;24237;50.106;20.014;2023-04-25T06:48:32;8.82;;;3.88;;
38455;SDS011;24237;50.106;20.014;2023-04-25T06:50:58;8.07;;;3.80;;
38455;SDS011;24237;50.106;20.014;2023-04-25T06:53:24;6.35;;;3.85;;
38455;SDS011;24237;50.106;20.014;2023-04-25T06:55:49;10.10;;;4.90;;
38455;SDS011;24237;50.106;20.014;2023-04-25T06:58:15;10.00;;;4.20;;
38455;SDS011;24237;50.106;20.014;2023-04-25T07:00:40;5.50;;;4.35;;
38455;SDS011;24237;50.106;20.014;2023-04-25T07:03:06;9.65;;;4.40;;
38455;SDS011;24237;50.106;20.014;2023-04-25T07:05:32;5.90;;;4.10;;
38455;SDS011;24237;50.106;20.014;2023-04-25T07:07:57;5.75;;;3.55;;
38455;SDS011;24237;50.106;20.014;2023-04-25T07:10:23;7.97;;;4.55;;
38455;SDS011;24237;50.106;20.014;2023-04-25T07:12:49;13.05;;;4.85;;
38455;SDS011;24237;50.106;20.014;2023-04-25T07:15:14;8.90;;;4.63;;
38455;SDS011;24237;50.106;20.014;2023-04-25T07:17:40;10.82;;;4.57;;
38455;SDS011;24237;50.106;20.014;2023-04-25T07:20:06;11.00;;;4.82;;
38455;SDS011;24237;50.106;20.014;2023-04-25T07:22:32;9.25;;;4.47;;
38455;SDS011;24237;50.106;20.014;2023-04-25T07:24:58;4.38;;;3.72;;
38455;SDS011;24237;50.106;20.014;2023-04-25T07:27:23;5.13;;;3.97;;
38455;SDS011;24237;50.106;20.014;2023-04-25T07:29:49;5.43;;;3.97;;
38455;SDS011;24237;50.106;20.014;2023-04-25T07:32:15;8.82;;;4.22;;
38455;SDS011;24237;50.106;20.014;2023-04-25T07:34:40;6.20;;;4.03;;
38455;SDS011;24237;50.106;20.014;2023-04-25T07:37:06;5.53;;;3.95;;
38455;SDS011;24237;50.106;20.014;2023-04-25T07:39:32;5.93;;;3.47;;
38455;SDS011;24237;50.106;20.014;2023-04-25T07:41:57;6.22;;;3.80;;
38455;SDS011;24237;50.106;20.014;2023-04-25T07:44:27;8.60;;;3.45;;
38455;SDS011;24237;50.106;20.014;2023-04-25T07:46:52;5.68;;;3.10;;
38455;SDS011;24237;50.106;20.014;2023-04-25T07:49:18;10.13;;;3.47;;
38455;SDS011;24237;50.106;20.014;2023-04-25T07:51:44;4.85;;;2.67;;
38455;SDS011;24237;50.106;20.014;2023-04-25T07:54:13;5.45;;;2.70;;
38455;SDS011;24237;50.106;20.014;2023-04-25T07:56:39;8.07;;;3.50;;
38455;SDS011;24237;50.106;20.014;2023-04-25T07:59:05;3.90;;;2.90;;
38455;SDS011;24237;50.106;20.014;2023-04-25T08:01:31;4.68;;;2.75;;
38455;SDS011;24237;50.106;20.014;2023-04-25T08:03:56;5.30;;;2.78;;
38455;SDS011;24237;50.106;20.014;2023-04-25T08:06:22;4.68;;;3.35;;
38455;SDS011;24237;50.106;20.014;2023-04-25T08:08:47;9.98;;;3.70;;
38455;SDS011;24237;50.106;20.014;2023-04-25T08:11:13;5.32;;;3.60;;
38455;SDS011;24237;50.106;20.014;2023-04-25T08:13:39;9.75;;;3.10;;
38455;SDS011;24237;50.106;20.014;2023-04-25T08:16:04;6.47;;;2.92;;
38455;SDS011;24237;50.106;20.014;2023-04-25T08:18:30;10.13;;;3.10;;
38455;SDS011;24237;50.106;20.014;2023-04-25T08:20:55;3.95;;;2.60;;
38455;SDS011;24237;50.106;20.014;2023-04-25T08:23:21;4.00;;;2.83;;
38455;SDS011;24237;50.106;20.014;2023-04-25T08:25:47;7.00;;;3.20;;
38455;SDS011;24237;50.106;20.014;2023-04-25T08:28:13;5.00;;;3.10;;
38455;SDS011;24237;50.106;20.014;2023-04-25T08:30:40;4.55;;;2.90;;
38455;SDS011;24237;50.106;20.014;2023-04-25T08:33:05;6.63;;;3.30;;
38455;SDS011;24237;50.106;20.014;2023-04-25T08:35:31;5.50;;;2.92;;
38455;SDS011;24237;50.106;20.014;2023-04-25T08:37:58;9.23;;;4.32;;
38455;SDS011;24237;50.106;20.014;2023-04-25T08:40:23;7.20;;;4.03;;
38455;SDS011;24237;50.106;20.014;2023-04-25T08:42:55;5.95;;;4.22;;
38455;SDS011;24237;50.106;20.014;2023-04-25T08:45:22;5.43;;;3.60;;
38455;SDS011;24237;50.106;20.014;2023-04-25T08:47:51;9.45;;;4.22;;
38455;SDS011;24237;50.106;20.014;2023-04-25T08:50:18;10.23;;;4.05;;
38455;SDS011;24237;50.106;20.014;2023-04-25T08:52:46;8.43;;;4.03;;
38455;SDS011;24237;50.106;20.014;2023-04-25T08:55:13;7.25;;;5.05;;
38455;SDS011;24237;50.106;20.014;2023-04-25T08:57:40;5.93;;;4.10;;
38455;SDS011;24237;50.106;20.014;2023-04-25T09:00:07;5.10;;;3.75;;
38455;SDS011;24237;50.106;20.014;2023-04-25T09:02:35;8.65;;;4.32;;
38455;SDS011;24237;50.106;20.014;2023-04-25T09:05:01;6.05;;;4.57;;
38455;SDS011;24237;50.106;20.014;2023-04-25T09:07:29;7.93;;;4.95;;
38455;SDS011;24237;50.106;20.014;2023-04-25T09:09:55;9.60;;;4.30;;
38455;SDS011;24237;50.106;20.014;2023-04-25T09:12:20;6.25;;;4.40;;
38455;SDS011;24237;50.106;20.014;2023-04-25T09:17:33;6.97;;;4.82;;
38455;SDS011;24237;50.106;20.014;2023-04-25T09:20:09;12.40;;;4.85;;
38455;SDS011;24237;50.106;20.014;2023-04-25T09:22:36;5.90;;;4.10;;
38455;SDS011;24237;50.106;20.014;2023-04-25T09:25:03;7.20;;;3.65;;
38455;SDS011;24237;50.106;20.014;2023-04-25T09:27:32;5.40;;;2.63;;
38455;SDS011;24237;50.106;20.014;2023-04-25T09:29:58;6.30;;;2.88;;
38455;SDS011;24237;50.106;20.014;2023-04-25T09:32:27;4.90;;;3.25;;
38455;SDS011;24237;50.106;20.014;2023-04-25T09:34:56;3.85;;;2.58;;
38455;SDS011;24237;50.106;20.014;2023-04-25T09:37:23;6.43;;;3.30;;
38455;SDS011;24237;50.106;20.014;2023-04-25T09:39:52;7.30;;;3.53;;
38455;SDS011;24237;50.106;20.014;2023-04-25T09:42:24;10.38;;;3.30;;
38455;SDS011;24237;50.106;20.014;2023-04-25T09:44:52;9.00;;;3.80;;
38455;SDS011;24237;50.106;20.014;2023-04-25T09:47:19;7.13;;;3.70;;
38455;SDS011;24237;50.106;20.014;2023-04-25T09:49:48;5.03;;;3.38;;
38455;SDS011;24237;50.106;20.014;2023-04-25T09:52:15;4.72;;;3.55;;
38455;SDS011;24237;50.106;20.014;2023-04-25T09:54:47;8.63;;;3.95;;
38455;SDS011;24237;50.106;20.014;2023-04-25T09:57:21;6.97;;;4.13;;
38455;SDS011;24237;50.106;20.014;2023-04-25T09:59:49;5.88;;;3.28;;
38455;SDS011;24237;50.106;20.014;2023-04-25T10:02:19;4.75;;;3.55;;
38455;SDS011;24237;50.106;20.014;2023-04-25T10:04:50;6.53;;;3.90;;
38455;SDS011;24237;50.106;20.014;2023-04-25T10:07:20;3.72;;;3.00;;
38455;SDS011;24237;50.106;20.014;2023-04-25T10:10:02;6.65;;;3.13;;
38455;SDS011;24237;50.106;20.014;2023-04-25T10:12:29;4.53;;;2.65;;
38455;SDS011;24237;50.106;20.014;2023-04-25T10:14:56;10.88;;;2.97;;
38455;SDS011;24237;50.106;20.014;2023-04-25T10:17:23;4.57;;;2.90;;
38455;SDS011;24237;50.106;20.014;2023-04-25T10:19:49;4.07;;;2.80;;
38455;SDS011;24237;50.106;20.014;2023-04-25T10:25:01;5.15;;;2.40;;
38455;SDS011;24237;50.106;20.014;2023-04-25T10:27:29;4.03;;;1.90;;
38455;SDS011;24237;50.106;20.014;2023-04-25T10:30:05;6.82;;;2.08;;
38455;SDS011;24237;50.106;20.014;2023-04-25T10:32:35;3.05;;;2.28;;
38455;SDS011;24237;50.106;20.014;2023-04-25T10:35:10;3.97;;;2.92;;
38455;SDS011;24237;50.106;20.014;2023-04-25T10:37:37;4.60;;;2.40;;
38455;SDS011;24237;50.106;20.014;2023-04-25T10:40:10;10.13;;;3.47;;
38455;SDS011;24237;50.106;20.014;2023-04-25T10:42:36;5.78;;;2.70;;
38455;SDS011;24237;50.106;20.014;2023-04-25T10:45:02;6.03;;;2.63;;
38455;SDS011;24237;50.106;20.014;2023-04-25T10:47:36;5.35;;;2.72;;
38455;SDS011;24237;50.106;20.014;2023-04-25T10:50:09;4.15;;;3.08;;
38455;SDS011;24237;50.106;20.014;2023-04-25T10:52:35;4.50;;;2.75;;
38455;SDS011;24237;50.106;20.014;2023-04-25T10:55:04;5.18;;;3.10;;
38455;SDS011;24237;50.106;20.014;2023-04-25T10:57:40;4.38;;;2.63;;
38455;SDS011;24237;50.106;20.014;2023-04-25T11:00:08;4.00;;;2.63;;
38455;SDS011;24237;50.106;20.014;2023-04-25T11:02:42;5.68;;;2.72;;
38455;SDS011;24237;50.106;20.014;2023-04-25T11:05:27;5.43;;;2.50;;
38455;SDS011;24237;50.106;20.014;2023-04-25T11:07:58;3.17;;;2.60;;
38455;SDS011;24237;50.106;20.014;2023-04-25T11:10:25;5.30;;;2.75;;
38455;SDS011;24237;50.106;20.014;2023-04-25T11:12:55;7.65;;;3.03;;
38455;SDS011;24237;50.106;20.014;2023-04-25T11:15:21;7.43;;;3.75;;
38455;SDS011;24237;50.106;20.014;2023-04-25T11:17:47;7.78;;;3.70;;
38455;SDS011;24237;50.106;20.014;2023-04-25T11:20:13;6.60;;;3.65;;
38455;SDS011;24237;50.106;20.014;2023-04-25T11:22:40;9.70;;;3.65;;
38455;SDS011;24237;50.106;20.014;2023-04-25T11:25:07;16.73;;;3.88;;
38455;SDS011;24237;50.106;20.014;2023-04-25T11:27:34;5.70;;;3.65;;
38455;SDS011;24237;50.106;20.014;2023-04-25T11:30:10;7.15;;;3.17;;
38455;SDS011;24237;50.106;20.014;2023-04-25T11:32:40;11.02;;;3.55;;
38455;SDS011;24237;50.106;20.014;2023-04-25T11:35:07;7.40;;;3.78;;
38455;SDS011;24237;50.106;20.014;2023-04-25T11:37:33;5.47;;;2.80;;
38455;SDS011;24237;50.106;20.014;2023-04-25T11:39:59;7.25;;;3.60;;
38455;SDS011;24237;50.106;20.014;2023-04-25T11:42:25;7.07;;;4.30;;
38455;SDS011;24237;50.106;20.014;2023-04-25T11:44:51;6.40;;;3.05;;
38455;SDS011;24237;50.106;20.014;2023-04-25T11:47:16;8.35;;;3.85;;
38455;SDS011;24237;50.106;20.014;2023-04-25T11:49:42;9.73;;;3.78;;
38455;SDS011;24237;50.106;20.014;2023-04-25T11:52:08;7.75;;;3.53;;
38455;SDS011;24237;50.106;20.014;2023-04-25T11:54:36;10.77;;;3.42;;
38455;SDS011;24237;50.106;20.014;2023-04-25T11:57:02;8.30;;;3.80;;
38455;SDS011;24237;50.106;20.014;2023-04-25T11:59:29;8.43;;;3.45;;
38455;SDS011;24237;50.106;20.014;2023-04-25T12:01:55;7.57;;;3.50;;
38455;SDS011;24237;50.106;20.014;2023-04-25T12:04:22;4.93;;;3.47;;
38455;SDS011;24237;50.106;20.014;2023-04-25T12:06:50;11.50;;;4.00;;
38455;SDS011;24237;50.106;20.014;2023-04-25T12:09:19;5.45;;;3.75;;
38455;SDS011;24237;50.106;20.014;2023-04-25T12:11:52;9.77;;;3.70;;
38455;SDS011;24237;50.106;20.014;2023-04-25T12:14:23;7.15;;;4.28;;
38455;SDS011;24237;50.106;20.014;2023-04-25T12:16:55;6.15;;;3.78;;
38455;SDS011;24237;50.106;20.014;2023-04-25T12:19:22;6.60;;;3.72;;
38455;SDS011;24237;50.106;20.014;2023-04-25T12:21:48;5.15;;;3.40;;
38455;SDS011;24237;50.106;20.014;2023-04-25T12:24:16;6.85;;;4.10;;
38455;SDS011;24237;50.106;20.014;2023-04-25T12:29:20;8.20;;;4.93;;
38455;SDS011;24237;50.106;20.014;2023-04-25T12:31:49;9.50;;;3.63;;
38455;SDS011;24237;50.106;20.014;2023-04-25T12:34:16;7.20;;;4.00;;
38455;SDS011;24237;50.106;20.014;2023-04-25T12:36:43;6.87;;;4.07;;
38455;SDS011;24237;50.106;20.014;2023-04-25T12:39:13;7.63;;;3.97;;
38455;SDS011;24237;50.106;20.014;2023-04-25T12:41:42;17.05;;;8.88;;
38455;SDS011;24237;50.106;20.014;2023-04-25T12:44:09;7.03;;;4.78;;
38455;SDS011;24237;50.106;20.014;2023-04-25T12:46:35;4.97;;;3.53;;
38455;SDS011;24237;50.106;20.014;2023-04-25T12:49:01;6.60;;;3.90;;
38455;SDS011;24237;50.106;20.014;2023-04-25T12:51:28;5.77;;;3.27;;
38455;SDS011;24237;50.106;20.014;2023-04-25T12:53:54;6.53;;;2.95;;
38455;SDS011;24237;50.106;20.014;2023-04-25T12:56:19;6.40;;;3.10;;
38455;SDS011;24237;50.106;20.014;2023-04-25T12:58:45;4.93;;;3.08;;
38455;SDS011;24237;50.106;20.014;2023-04-25T13:01:13;10.02;;;3.05;;
38455;SDS011;24237;50.106;20.014;2023-04-25T13:03:39;4.28;;;3.88;;
38455;SDS011;24237;50.106;20.014;2023-04-25T13:06:06;4.57;;;3.22;;
38455;SDS011;24237;50.106;20.014;2023-04-25T13:08:31;4.82;;;3.17;;
38455;SDS011;24237;50.106;20.014;2023-04-25T13:10:57;8.20;;;3.13;;
38455;SDS011;24237;50.106;20.014;2023-04-25T13:13:23;4.75;;;2.83;;
38455;SDS011;24237;50.106;20.014;2023-04-25T13:15:48;8.95;;;4.15;;
38455;SDS011;24237;50.106;20.014;2023-04-25T13:18:14;5.82;;;3.42;;
38455;SDS011;24237;50.106;20.014;2023-04-25T13:20:40;5.88;;;3.00;;
38455;SDS011;24237;50.106;20.014;2023-04-25T13:23:06;8.88;;;3.28;;
38455;SDS011;24237;50.106;20.014;2023-04-25T13:25:31;8.73;;;3.25;;
38455;SDS011;24237;50.106;20.014;2023-04-25T13:27:57;6.18;;;3.03;;
38455;SDS011;24237;50.106;20.014;2023-04-25T13:30:22;6.32;;;2.80;;
38455;SDS011;24237;50.106;20.014;2023-04-25T13:32:48;6.55;;;2.90;;
38455;SDS011;24237;50.106;20.014;2023-04-25T13:35:14;7.30;;;2.88;;
38455;SDS011;24237;50.106;20.014;2023-04-25T13:37:40;8.50;;;3.40;;
38455;SDS011;24237;50.106;20.014;2023-04-25T13:40:06;4.78;;;3.15;;
38455;SDS011;24237;50.106;20.014;2023-04-25T13:42:34;5.72;;;3.63;;
38455;SDS011;24237;50.106;20.014;2023-04-25T13:45:01;4.85;;;3.00;;
38455;SDS011;24237;50.106;20.014;2023-04-25T13:47:27;10.50;;;3.47;;
38455;SDS011;24237;50.106;20.014;2023-04-25T13:49:53;5.00;;;2.65;;
38455;SDS011;24237;50.106;20.014;2023-04-25T13:52:19;8.60;;;3.10;;
38455;SDS011;24237;50.106;20.014;2023-04-25T13:54:45;6.45;;;2.95;;
38455;SDS011;24237;50.106;20.014;2023-04-25T13:57:11;5.28;;;2.95;;
38455;SDS011;24237;50.106;20.014;2023-04-25T13:59:37;5.38;;;2.50;;
38455;SDS011;24237;50.106;20.014;2023-04-25T14:02:03;6.32;;;2.78;;
38455;SDS011;24237;50.106;20.014;2023-04-25T14:04:29;5.63;;;3.38;;
38455;SDS011;24237;50.106;20.014;2023-04-25T14:06:54;5.50;;;3.47;;
38455;SDS011;24237;50.106;20.014;2023-04-25T14:09:20;8.75;;;3.92;;
38455;SDS011;24237;50.106;20.014;2023-04-25T14:11:50;6.22;;;3.58;;
38455;SDS011;24237;50.106;20.014;2023-04-25T14:14:17;8.50;;;4.50;;
38455;SDS011;24237;50.106;20.014;2023-04-25T14:16:43;10.13;;;5.25;;
38455;SDS011;24237;50.106;20.014;2023-04-25T14:19:08;5.93;;;3.05;;
38455;SDS011;24237;50.106;20.014;2023-04-25T14:21:34;8.25;;;3.50;;
38455;SDS011;24237;50.106;20.014;2023-04-25T14:24:00;9.15;;;3.55;;
38455;SDS011;24237;50.106;20.014;2023-04-25T14:26:25;4.63;;;2.75;;
38455;SDS011;24237;50.106;20.014;2023-04-25T14:28:51;7.10;;;2.85;;
38455;SDS011;24237;50.106;20.014;2023-04-25T14:31:17;6.63;;;3.40;;
38455;SDS011;24237;50.106;20.014;2023-04-25T14:33:43;5.70;;;3.03;;
38455;SDS011;24237;50.106;20.014;2023-04-25T14:36:09;7.43;;;3.38;;
38455;SDS011;24237;50.106;20.014;2023-04-25T14:38:36;4.78;;;3.13;;